sensor_id;sensor_type;location;lat;lon;timestamp;pressure;altitude;pressure_sealevel;temperature;humidity
59443;BME280;45247;47.466;19.004;2023-04-25T00:00:23;98840.38;;;10.46;100.00
59443;BME280;45247;47.466;19.004;2023-04-25T00:02:51;98840.81;;;10.40;100.00
59443;BME280;45247;47.466;19.004;2023-04-25T00:05:21;98833.66;;;10.42;100.00
59443;BME280;45247;47.466;19.004;2023-04-25T00:07:50;98829.34;;;10.41;100.00
59443;BME280;45247;47.466;19.004;2023-04-25T00:10:19;98827.63;;;10.40;100.00
59443;BME280;45247;47.466;19.004;2023-04-25T00:12:48;98811.59;;;10.32;100.00
59443;BME280;45247;47.466;19.004;2023-04-25T00:15:16;98822.56;;;10.26;100.00
59443;BME280;45247;47.466;19.004;2023-04-25T00:17:44;98813.31;;;10.20;100.00
59443;BME280;45247;47.466;19.004;2023-04-25T00:20:13;98808.25;;;10.17;100.00
59443;BME280;45247;47.466;19.004;2023-04-25T00:22:43;98806.94;;;10.23;100.00
59443;BME280;45247;47.466;19.004;2023-04-25T00:25:11;98807.72;;;10.25;100.00
59443;BME280;45247;47.466;19.004;2023-04-25T00:27:40;98801.66;;;10.23;100.00
59443;BME280;45247;47.466;19.004;2023-04-25T00:30:09;98804.84;;;10.28;100.00
59443;BME280;45247;47.466;19.004;2023-04-25T00:32:37;98804.38;;;10.34;100.00
59443;BME280;45247;47.466;19.004;2023-04-25T00:35:06;98796.34;;;10.36;100.00
59443;BME280;45247;47.466;19.004;2023-04-25T00:37:34;98794.22;;;10.41;100.00
59443;BME280;45247;47.466;19.004;2023-04-25T00:40:05;98802.81;;;10.32;100.00
59443;BME280;45247;47.466;19.004;2023-04-25T00:42:35;98801.03;;;10.32;100.00
59443;BME280;45247;47.466;19.004;2023-04-25T00:45:05;98796.94;;;10.39;100.00
59443;BME280;45247;47.466;19.004;2023-04-25T00:47:35;98781.63;;;10.33;100.00
59443;BME280;45247;47.466;19.004;2023-04-25T00:50:05;98788.44;;;10.36;100.00
59443;BME280;45247;47.466;19.004;2023-04-25T00:52:33;98774.41;;;10.35;100.00
59443;BME280;45247;47.466;19.004;2023-04-25T00:55:02;98777.03;;;10.35;100.00
59443;BME280;45247;47.466;19.004;2023-04-25T00:57:31;98769.75;;;10.39;100.00
59443;BME280;45247;47.466;19.004;2023-04-25T01:00:00;98768.78;;;10.40;100.00
59443;BME280;45247;47.466;19.004;2023-04-25T01:02:28;98776.94;;;10.37;100.00
59443;BME280;45247;47.466;19.004;2023-04-25T01:04:57;98778.00;;;10.34;100.00
59443;BME280;45247;47.466;19.004;2023-04-25T01:07:25;98763.84;;;10.35;100.00
59443;BME280;45247;47.466;19.004;2023-04-25T01:09:54;98765.78;;;10.33;100.00
59443;BME280;45247;47.466;19.004;2023-04-25T01:12:22;98761.81;;;10.27;100.00
59443;BME280;45247;47.466;19.004;2023-04-25T01:14:52;98754.41;;;10.33;100.00
59443;BME280;45247;47.466;19.004;2023-04-25T01:17:20;98756.22;;;10.32;100.00
59443;BME280;45247;47.466;19.004;2023-04-25T01:19:49;98752.66;;;10.20;100.00
59443;BME280;45247;47.466;19.004;2023-04-25T01:22:19;98760.81;;;10.17;100.00
59443;BME280;45247;47.466;19.004;2023-04-25T01:24:47;98747.25;;;10.22;100.00
59443;BME280;45247;47.466;19.004;2023-04-25T01:27:16;98763.56;;;10.16;100.00
59443;BME280;45247;47.466;19.004;2023-04-25T01:29:45;98735.19;;;10.19;100.00
59443;BME280;45247;47.466;19.004;2023-04-25T01:32:14;98740.06;;;10.13;100.00
59443;BME280;45247;47.466;19.004;2023-04-25T01:34:42;98749.63;;;10.14;100.00
59443;BME280;45247;47.466;19.004;2023-04-25T01:37:10;98743.41;;;10.15;100.00
59443;BME280;45247;47.466;19.004;2023-04-25T01:39:40;98754.81;;;10.15;100.00
59443;BME280;45247;47.466;19.004;2023-04-25T01:42:09;98748.19;;;10.10;100.00
59443;BME280;45247;47.466;19.004;2023-04-25T01:44:37;98747.84;;;10.14;100.00
59443;BME280;45247;47.466;19.004;2023-04-25T01:47:05;98744.38;;;10.14;100.00
59443;BME280;45247;47.466;19.004;2023-04-25T01:49:33;98745.56;;;10.10;100.00
59443;BME280;45247;47.466;19.004;2023-04-25T01:52:01;98750.38;;;10.16;100.00
59443;BME280;45247;47.466;19.004;2023-04-25T01:54:29;98753.84;;;10.16;100.00
59443;BME280;45247;47.466;19.004;2023-04-25T01:56:59;98753.47;;;10.10;100.00
59443;BME280;45247;47.466;19.004;2023-04-25T01:59:28;98744.16;;;10.17;100.00
59443;BME280;45247;47.466;19.004;2023-04-25T02:01:56;98763.56;;;10.16;100.00
59443;BME280;45247;47.466;19.004;2023-04-25T02:04:25;98757.56;;;10.14;100.00
59443;BME280;45247;47.466;19.004;2023-04-25T02:06:53;98762.59;;;10.17;100.00
59443;BME280;45247;47.466;19.004;2023-04-25T02:09:21;98751.31;;;10.15;100.00
59443;BME280;45247;47.466;19.004;2023-04-25T02:11:49;98765.00;;;10.20;100.00
59443;BME280;45247;47.466;19.004;2023-04-25T02:14:19;98752.88;;;10.17;100.00
59443;BME280;45247;47.466;19.004;2023-04-25T02:16:47;98763.78;;;10.13;100.00
59443;BME280;45247;47.466;19.004;2023-04-25T02:19:16;98754.91;;;10.14;100.00
59443;BME280;45247;47.466;19.004;2023-04-25T02:21:44;98763.06;;;10.11;100.00
59443;BME280;45247;47.466;19.004;2023-04-25T02:24:12;98753.94;;;10.03;100.00
59443;BME280;45247;47.466;19.004;2023-04-25T02:26:40;98753.94;;;10.03;100.00
59443;BME280;45247;47.466;19.004;2023-04-25T02:29:09;98769.75;;;10.03;100.00
59443;BME280;45247;47.466;19.004;2023-04-25T02:31:39;98760.66;;;10.08;100.00
59443;BME280;45247;47.466;19.004;2023-04-25T02:34:07;98760.19;;;10.02;100.00
59443;BME280;45247;47.466;19.004;2023-04-25T02:36:35;98763.41;;;10.06;100.00
59443;BME280;45247;47.466;19.004;2023-04-25T02:39:03;98765.19;;;10.06;100.00
59443;BME280;45247;47.466;19.004;2023-04-25T02:41:31;98749.63;;;10.02;100.00
59443;BME280;45247;47.466;19.004;2023-04-25T02:43:59;98766.16;;;10.04;100.00
59443;BME280;45247;47.466;19.004;2023-04-25T02:46:27;98766.16;;;10.04;100.00
59443;BME280;45247;47.466;19.004;2023-04-25T02:49:06;98750.06;;;9.96;100.00
59443;BME280;45247;47.466;19.004;2023-04-25T02:51:35;98754.28;;;9.99;100.00
59443;BME280;45247;47.466;19.004;2023-04-25T02:54:03;98760.84;;;9.93;100.00
59443;BME280;45247;47.466;19.004;2023-04-25T02:56:33;98773.31;;;9.91;100.00
59443;BME280;45247;47.466;19.004;2023-04-25T02:59:01;98761.31;;;9.87;100.00
59443;BME280;45247;47.466;19.004;2023-04-25T03:01:29;98763.31;;;9.84;100.00
59443;BME280;45247;47.466;19.004;2023-04-25T03:03:57;98755.31;;;9.85;100.00
59443;BME280;45247;47.466;19.004;2023-04-25T03:06:26;98750.78;;;9.87;100.00
59443;BME280;45247;47.466;19.004;2023-04-25T03:08:54;98751.94;;;9.83;100.00
59443;BME280;45247;47.466;19.004;2023-04-25T03:11:25;98758.47;;;9.90;100.00
59443;BME280;45247;47.466;19.004;2023-04-25T03:13:53;98749.19;;;9.85;100.00
59443;BME280;45247;47.466;19.004;2023-04-25T03:16:21;98757.22;;;9.83;100.00
59443;BME280;45247;47.466;19.004;2023-04-25T03:18:50;98743.56;;;9.78;100.00
59443;BME280;45247;47.466;19.004;2023-04-25T03:21:18;98747.16;;;9.77;100.00
59443;BME280;45247;47.466;19.004;2023-04-25T03:23:47;98744.75;;;9.74;100.00
59443;BME280;45247;47.466;19.004;2023-04-25T03:26:16;98758.13;;;9.71;100.00
59443;BME280;45247;47.466;19.004;2023-04-25T03:28:44;98748.34;;;9.73;100.00
59443;BME280;45247;47.466;19.004;2023-04-25T03:31:12;98738.97;;;9.69;100.00
59443;BME280;45247;47.466;19.004;2023-04-25T03:33:40;98744.34;;;9.67;100.00
59443;BME280;45247;47.466;19.004;2023-04-25T03:36:08;98751.41;;;9.67;100.00
59443;BME280;45247;47.466;19.004;2023-04-25T03:38:37;98762.19;;;9.64;100.00
59443;BME280;45247;47.466;19.004;2023-04-25T03:41:07;98752.56;;;9.63;100.00
59443;BME280;45247;47.466;19.004;2023-04-25T03:43:35;98741.88;;;9.53;100.00
59443;BME280;45247;47.466;19.004;2023-04-25T03:46:03;98759.81;;;9.48;100.00
59443;BME280;45247;47.466;19.004;2023-04-25T03:48:31;98755.69;;;9.57;100.00
59443;BME280;45247;47.466;19.004;2023-04-25T03:50:59;98757.41;;;9.45;100.00
59443;BME280;45247;47.466;19.004;2023-04-25T03:53:28;98768.06;;;9.43;100.00
59443;BME280;45247;47.466;19.004;2023-04-25T03:55:56;98762.06;;;9.41;100.00
59443;BME280;45247;47.466;19.004;2023-04-25T03:58:25;98763.75;;;9.42;100.00
59443;BME280;45247;47.466;19.004;2023-04-25T04:00:53;98768.16;;;9.42;100.00
59443;BME280;45247;47.466;19.004;2023-04-25T04:03:21;98766.59;;;9.39;100.00
59443;BME280;45247;47.466;19.004;2023-04-25T04:05:50;98782.41;;;9.39;100.00
59443;BME280;45247;47.466;19.004;2023-04-25T04:08:18;98770.75;;;9.31;100.00
59443;BME280;45247;47.466;19.004;2023-04-25T04:10:46;98764.63;;;9.30;100.00
59443;BME280;45247;47.466;19.004;2023-04-25T04:13:15;98768.53;;;9.24;100.00
59443;BME280;45247;47.466;19.004;2023-04-25T04:15:44;98784.66;;;9.20;100.00
59443;BME280;45247;47.466;19.004;2023-04-25T04:18:12;98784.91;;;9.17;100.00
59443;BME280;45247;47.466;19.004;2023-04-25T04:20:40;98772.06;;;9.12;100.00
59443;BME280;45247;47.466;19.004;2023-04-25T04:23:09;98790.59;;;9.11;100.00
59443;BME280;45247;47.466;19.004;2023-04-25T04:25:37;98780.50;;;9.05;100.00
59443;BME280;45247;47.466;19.004;2023-04-25T04:28:06;98792.53;;;8.96;100.00
59443;BME280;45247;47.466;19.004;2023-04-25T04:30:34;98789.66;;;8.86;100.00
59443;BME280;45247;47.466;19.004;2023-04-25T04:33:05;98782.84;;;8.84;100.00
59443;BME280;45247;47.466;19.004;2023-04-25T04:35:34;98785.19;;;8.75;100.00
59443;BME280;45247;47.466;19.004;2023-04-25T04:38:02;98780.75;;;8.76;100.00
59443;BME280;45247;47.466;19.004;2023-04-25T04:40:31;98777.59;;;8.71;100.00
59443;BME280;45247;47.466;19.004;2023-04-25T04:42:59;98793.38;;;8.71;100.00
59443;BME280;45247;47.466;19.004;2023-04-25T04:45:27;98798.03;;;8.67;100.00
59443;BME280;45247;47.466;19.004;2023-04-25T04:47:55;98793.78;;;8.77;100.00
59443;BME280;45247;47.466;19.004;2023-04-25T04:50:25;98795.06;;;8.59;100.00
59443;BME280;45247;47.466;19.004;2023-04-25T04:52:54;98794.44;;;8.56;100.00
59443;BME280;45247;47.466;19.004;2023-04-25T04:55:22;98785.81;;;8.53;100.00
59443;BME280;45247;47.466;19.004;2023-04-25T04:57:50;98789.41;;;8.52;100.00
59443;BME280;45247;47.466;19.004;2023-04-25T05:00:18;98788.78;;;8.49;100.00
59443;BME280;45247;47.466;19.004;2023-04-25T05:02:47;98793.59;;;8.42;100.00
59443;BME280;45247;47.466;19.004;2023-04-25T05:05:15;98792.13;;;8.38;100.00
59443;BME280;45247;47.466;19.004;2023-04-25T05:07:45;98795.88;;;8.34;100.00
59443;BME280;45247;47.466;19.004;2023-04-25T05:10:13;98811.34;;;8.39;100.00
59443;BME280;45247;47.466;19.004;2023-04-25T05:12:41;98791.81;;;8.43;100.00
59443;BME280;45247;47.466;19.004;2023-04-25T05:15:10;98795.50;;;8.40;100.00
59443;BME280;45247;47.466;19.004;2023-04-25T05:17:38;98792.13;;;8.38;100.00
59443;BME280;45247;47.466;19.004;2023-04-25T05:20:08;98790.09;;;8.29;100.00
59443;BME280;45247;47.466;19.004;2023-04-25T05:22:36;98796.91;;;8.19;100.00
59443;BME280;45247;47.466;19.004;2023-04-25T05:25:07;98804.03;;;8.17;100.00
59443;BME280;45247;47.466;19.004;2023-04-25T05:27:35;98803.00;;;8.07;100.00
59443;BME280;45247;47.466;19.004;2023-04-25T05:30:04;98798.78;;;8.04;100.00
59443;BME280;45247;47.466;19.004;2023-04-25T05:32:32;98795.31;;;8.03;100.00
59443;BME280;45247;47.466;19.004;2023-04-25T05:35:01;98799.84;;;8.01;100.00
59443;BME280;45247;47.466;19.004;2023-04-25T05:37:29;98799.88;;;7.87;100.00
59443;BME280;45247;47.466;19.004;2023-04-25T05:39:59;98797.25;;;7.87;100.00
59443;BME280;45247;47.466;19.004;2023-04-25T05:42:29;98801.91;;;7.84;100.00
59443;BME280;45247;47.466;19.004;2023-04-25T05:44:57;98790.31;;;7.86;100.00
59443;BME280;45247;47.466;19.004;2023-04-25T05:47:25;98804.41;;;7.85;100.00
59443;BME280;45247;47.466;19.004;2023-04-25T05:49:53;98807.97;;;7.84;100.00
59443;BME280;45247;47.466;19.004;2023-04-25T05:52:21;98801.78;;;7.85;100.00
59443;BME280;45247;47.466;19.004;2023-04-25T05:54:49;98800.84;;;7.86;100.00
59443;BME280;45247;47.466;19.004;2023-04-25T05:57:22;98812.81;;;7.90;100.00
59443;BME280;45247;47.466;19.004;2023-04-25T05:59:52;98811.56;;;7.96;100.00
59443;BME280;45247;47.466;19.004;2023-04-25T06:02:21;98809.50;;;8.01;100.00
59443;BME280;45247;47.466;19.004;2023-04-25T06:04:49;98812.22;;;7.99;100.00
59443;BME280;45247;47.466;19.004;2023-04-25T06:07:18;98823.16;;;8.06;100.00
59443;BME280;45247;47.466;19.004;2023-04-25T06:09:46;98820.13;;;8.12;100.00
59443;BME280;45247;47.466;19.004;2023-04-25T06:12:15;98812.88;;;8.16;100.00
59443;BME280;45247;47.466;19.004;2023-04-25T06:14:43;98823.94;;;8.21;100.00
59443;BME280;45247;47.466;19.004;2023-04-25T06:17:12;98823.84;;;8.22;100.00
59443;BME280;45247;47.466;19.004;2023-04-25T06:19:40;98823.72;;;8.24;100.00
59443;BME280;45247;47.466;19.004;2023-04-25T06:22:08;98830.81;;;8.36;100.00
59443;BME280;45247;47.466;19.004;2023-04-25T06:24:36;98820.72;;;8.43;100.00
59443;BME280;45247;47.466;19.004;2023-04-25T06:27:04;98828.53;;;8.44;100.00
59443;BME280;45247;47.466;19.004;2023-04-25T06:29:33;98828.84;;;8.52;100.00
59443;BME280;45247;47.466;19.004;2023-04-25T06:32:01;98820.72;;;8.68;100.00
59443;BME280;45247;47.466;19.004;2023-04-25T06:34:30;98828.44;;;8.71;100.00
59443;BME280;45247;47.466;19.004;2023-04-25T06:36:58;98823.81;;;8.75;100.00
59443;BME280;45247;47.466;19.004;2023-04-25T06:39:26;98824.84;;;8.72;100.00
59443;BME280;45247;47.466;19.004;2023-04-25T06:41:55;98828.00;;;8.77;100.00
59443;BME280;45247;47.466;19.004;2023-04-25T06:44:23;98834.63;;;8.96;100.00
59443;BME280;45247;47.466;19.004;2023-04-25T06:46:52;98829.38;;;8.96;100.00
59443;BME280;45247;47.466;19.004;2023-04-25T06:49:21;98827.56;;;8.96;100.00
59443;BME280;45247;47.466;19.004;2023-04-25T06:51:50;98833.56;;;8.98;100.00
59443;BME280;45247;47.466;19.004;2023-04-25T06:54:18;98835.16;;;8.88;100.00
59443;BME280;45247;47.466;19.004;2023-04-25T06:56:47;98835.66;;;8.93;100.00
59443;BME280;45247;47.466;19.004;2023-04-25T06:59:15;98827.78;;;8.93;100.00
59443;BME280;45247;47.466;19.004;2023-04-25T07:01:43;98829.25;;;8.97;100.00
59443;BME280;45247;47.466;19.004;2023-04-25T07:04:12;98830.19;;;8.96;100.00
59443;BME280;45247;47.466;19.004;2023-04-25T07:06:41;98840.09;;;9.06;100.00
59443;BME280;45247;47.466;19.004;2023-04-25T07:09:11;98843.84;;;9.14;100.00
59443;BME280;45247;47.466;19.004;2023-04-25T07:11:39;98848.06;;;9.17;100.00
59443;BME280;45247;47.466;19.004;2023-04-25T07:14:07;98846.97;;;9.32;100.00
59443;BME280;45247;47.466;19.004;2023-04-25T07:16:35;98847.13;;;9.54;100.00
59443;BME280;45247;47.466;19.004;2023-04-25T07:19:04;98841.69;;;9.45;100.00
59443;BME280;45247;47.466;19.004;2023-04-25T07:21:32;98841.22;;;9.64;100.00
59443;BME280;45247;47.466;19.004;2023-04-25T07:24:00;98848.00;;;9.79;100.00
59443;BME280;45247;47.466;19.004;2023-04-25T07:26:30;98845.19;;;9.93;100.00
59443;BME280;45247;47.466;19.004;2023-04-25T07:28:58;98847.28;;;9.77;100.00
59443;BME280;45247;47.466;19.004;2023-04-25T07:31:26;98846.13;;;9.92;100.00
59443;BME280;45247;47.466;19.004;2023-04-25T07:33:55;98849.06;;;10.00;100.00
59443;BME280;45247;47.466;19.004;2023-04-25T07:36:24;98855.28;;;9.99;100.00
59443;BME280;45247;47.466;19.004;2023-04-25T07:38:53;98852.53;;;10.25;100.00
59443;BME280;45247;47.466;19.004;2023-04-25T07:41:22;98848.03;;;10.38;100.00
59443;BME280;45247;47.466;19.004;2023-04-25T07:43:51;98851.38;;;10.29;100.00
59443;BME280;45247;47.466;19.004;2023-04-25T07:46:19;98852.16;;;10.53;100.00
59443;BME280;45247;47.466;19.004;2023-04-25T07:48:48;98856.50;;;10.77;100.00
59443;BME280;45247;47.466;19.004;2023-04-25T07:51:16;98858.31;;;10.99;100.00
59443;BME280;45247;47.466;19.004;2023-04-25T07:53:46;98853.16;;;11.09;100.00
59443;BME280;45247;47.466;19.004;2023-04-25T07:56:16;98853.44;;;11.06;100.00
59443;BME280;45247;47.466;19.004;2023-04-25T07:58:44;98846.44;;;11.38;100.00
59443;BME280;45247;47.466;19.004;2023-04-25T08:01:14;98845.47;;;11.50;100.00
59443;BME280;45247;47.466;19.004;2023-04-25T08:03:42;98848.69;;;11.43;100.00
59443;BME280;45247;47.466;19.004;2023-04-25T08:06:10;98849.31;;;11.58;100.00
59443;BME280;45247;47.466;19.004;2023-04-25T08:08:39;98852.59;;;11.93;100.00
59443;BME280;45247;47.466;19.004;2023-04-25T08:11:07;98862.97;;;11.74;100.00
59443;BME280;45247;47.466;19.004;2023-04-25T08:13:35;98849.47;;;12.20;100.00
59443;BME280;45247;47.466;19.004;2023-04-25T08:16:04;98868.31;;;12.38;100.00
59443;BME280;45247;47.466;19.004;2023-04-25T08:18:34;98861.06;;;12.40;100.00
59443;BME280;45247;47.466;19.004;2023-04-25T08:21:02;98872.72;;;12.17;100.00
59443;BME280;45247;47.466;19.004;2023-04-25T08:23:30;98871.56;;;12.31;100.00
59443;BME280;45247;47.466;19.004;2023-04-25T08:25:58;98855.06;;;12.38;100.00
59443;BME280;45247;47.466;19.004;2023-04-25T08:28:26;98864.22;;;12.34;100.00
59443;BME280;45247;47.466;19.004;2023-04-25T08:30:58;98871.66;;;12.61;100.00
59443;BME280;45247;47.466;19.004;2023-04-25T08:33:26;98871.84;;;12.90;100.00
59443;BME280;45247;47.466;19.004;2023-04-25T08:35:56;98877.19;;;13.00;100.00
59443;BME280;45247;47.466;19.004;2023-04-25T08:38:26;98883.50;;;13.30;100.00
59443;BME280;45247;47.466;19.004;2023-04-25T08:40:56;98881.84;;;12.87;100.00
59443;BME280;45247;47.466;19.004;2023-04-25T08:43:29;98876.69;;;12.85;100.00
59443;BME280;45247;47.466;19.004;2023-04-25T08:45:59;98879.69;;;13.01;100.00
59443;BME280;45247;47.466;19.004;2023-04-25T08:48:28;98885.47;;;12.86;100.00
59443;BME280;45247;47.466;19.004;2023-04-25T08:50:57;98890.19;;;12.82;100.00
59443;BME280;45247;47.466;19.004;2023-04-25T08:53:27;98882.72;;;12.97;100.00
59443;BME280;45247;47.466;19.004;2023-04-25T08:55:58;98884.34;;;13.09;100.00
59443;BME280;45247;47.466;19.004;2023-04-25T08:58:27;98888.56;;;12.91;100.00
59443;BME280;45247;47.466;19.004;2023-04-25T09:00:57;98888.31;;;12.94;100.00
59443;BME280;45247;47.466;19.004;2023-04-25T09:03:27;98889.78;;;13.08;100.00
59443;BME280;45247;47.466;19.004;2023-04-25T09:05:55;98882.44;;;12.90;100.00
59443;BME280;45247;47.466;19.004;2023-04-25T09:08:25;98889.94;;;12.64;100.00
59443;BME280;45247;47.466;19.004;2023-04-25T09:10:53;98905.03;;;12.94;100.00
59443;BME280;45247;47.466;19.004;2023-04-25T09:13:25;98896.75;;;13.09;100.00
59443;BME280;45247;47.466;19.004;2023-04-25T09:15:55;98900.56;;;13.16;100.00
59443;BME280;45247;47.466;19.004;2023-04-25T09:18:24;98904.72;;;13.39;100.00
59443;BME280;45247;47.466;19.004;2023-04-25T09:21:04;98898.50;;;13.19;100.00
59443;BME280;45247;47.466;19.004;2023-04-25T09:23:47;98876.16;;;13.22;100.00
59443;BME280;45247;47.466;19.004;2023-04-25T09:26:19;98885.66;;;13.45;100.00
59443;BME280;45247;47.466;19.004;2023-04-25T09:28:47;98900.09;;;13.72;100.00
59443;BME280;45247;47.466;19.004;2023-04-25T09:31:21;98897.38;;;13.93;100.00
59443;BME280;45247;47.466;19.004;2023-04-25T09:33:58;98893.22;;;14.19;100.00
59443;BME280;45247;47.466;19.004;2023-04-25T09:36:29;98880.34;;;14.34;98.25
59443;BME280;45247;47.466;19.004;2023-04-25T09:38:59;98894.59;;;14.33;96.05
59443;BME280;45247;47.466;19.004;2023-04-25T09:41:28;98896.00;;;14.18;99.75
59443;BME280;45247;47.466;19.004;2023-04-25T09:43:57;98880.06;;;14.08;100.00
59443;BME280;45247;47.466;19.004;2023-04-25T09:46:33;98880.09;;;14.18;100.00
59443;BME280;45247;47.466;19.004;2023-04-25T09:49:06;98887.22;;;14.27;99.32
59443;BME280;45247;47.466;19.004;2023-04-25T09:51:34;98885.78;;;14.03;100.00
59443;BME280;45247;47.466;19.004;2023-04-25T09:54:04;98881.75;;;14.19;100.00
59443;BME280;45247;47.466;19.004;2023-04-25T09:56:35;98881.03;;;14.17;97.01
59443;BME280;45247;47.466;19.004;2023-04-25T09:59:05;98908.88;;;14.22;93.16
59443;BME280;45247;47.466;19.004;2023-04-25T10:01:34;98896.22;;;13.76;94.52
59443;BME280;45247;47.466;19.004;2023-04-25T10:04:04;98896.94;;;13.47;100.00
59443;BME280;45247;47.466;19.004;2023-04-25T10:06:34;98909.59;;;13.74;99.36
59443;BME280;45247;47.466;19.004;2023-04-25T10:09:06;98908.28;;;13.49;97.61
59443;BME280;45247;47.466;19.004;2023-04-25T10:11:35;98886.53;;;13.56;100.00
59443;BME280;45247;47.466;19.004;2023-04-25T10:14:04;98895.75;;;13.31;100.00
59443;BME280;45247;47.466;19.004;2023-04-25T10:16:33;98896.78;;;13.39;100.00
59443;BME280;45247;47.466;19.004;2023-04-25T10:19:02;98886.16;;;13.09;100.00
59443;BME280;45247;47.466;19.004;2023-04-25T10:21:31;98903.72;;;13.10;100.00
59443;BME280;45247;47.466;19.004;2023-04-25T10:24:01;98902.91;;;13.19;100.00
59443;BME280;45247;47.466;19.004;2023-04-25T10:26:32;98889.78;;;13.08;100.00
59443;BME280;45247;47.466;19.004;2023-04-25T10:29:02;98894.97;;;13.40;96.18
59443;BME280;45247;47.466;19.004;2023-04-25T10:31:31;98889.38;;;13.33;98.43
59443;BME280;45247;47.466;19.004;2023-04-25T10:33:59;98881.88;;;13.48;100.00
59443;BME280;45247;47.466;19.004;2023-04-25T10:36:31;98881.13;;;13.76;96.40
59443;BME280;45247;47.466;19.004;2023-04-25T10:39:03;98883.16;;;14.42;92.31
59443;BME280;45247;47.466;19.004;2023-04-25T10:41:48;98887.19;;;14.85;86.62
59443;BME280;45247;47.466;19.004;2023-04-25T10:44:19;98885.97;;;14.50;83.82
59443;BME280;45247;47.466;19.004;2023-04-25T10:46:47;98892.94;;;14.81;79.82
59443;BME280;45247;47.466;19.004;2023-04-25T10:49:29;98905.22;;;14.33;80.22
59443;BME280;45247;47.466;19.004;2023-04-25T10:52:11;98898.19;;;13.93;85.99
59443;BME280;45247;47.466;19.004;2023-04-25T10:54:41;98901.25;;;13.89;85.68
59443;BME280;45247;47.466;19.004;2023-04-25T11:00:14;98906.00;;;13.85;81.30
59443;BME280;45247;47.466;19.004;2023-04-25T11:02:44;98904.91;;;13.97;82.34
59443;BME280;45247;47.466;19.004;2023-04-25T11:05:29;98905.75;;;14.08;79.91
59443;BME280;45247;47.466;19.004;2023-04-25T11:07:58;98898.66;;;14.18;81.70
59443;BME280;45247;47.466;19.004;2023-04-25T11:10:34;98903.41;;;14.34;78.47
59443;BME280;45247;47.466;19.004;2023-04-25T11:13:03;98900.91;;;14.71;77.05
59443;BME280;45247;47.466;19.004;2023-04-25T11:15:33;98900.75;;;14.92;74.24
59443;BME280;45247;47.466;19.004;2023-04-25T11:18:01;98885.25;;;15.34;73.06
59443;BME280;45247;47.466;19.004;2023-04-25T11:20:29;98910.16;;;15.33;70.91
59443;BME280;45247;47.466;19.004;2023-04-25T11:22:58;98909.22;;;15.52;69.64
59443;BME280;45247;47.466;19.004;2023-04-25T11:25:27;98901.34;;;15.60;69.32
59443;BME280;45247;47.466;19.004;2023-04-25T11:27:58;98899.31;;;15.82;67.53
59443;BME280;45247;47.466;19.004;2023-04-25T11:30:27;98898.38;;;15.73;68.07
59443;BME280;45247;47.466;19.004;2023-04-25T11:32:58;98901.59;;;15.39;70.48
59443;BME280;45247;47.466;19.004;2023-04-25T11:35:26;98909.47;;;15.21;72.07
59443;BME280;45247;47.466;19.004;2023-04-25T11:37:54;98912.22;;;14.92;73.97
59443;BME280;45247;47.466;19.004;2023-04-25T11:40:23;98911.09;;;14.85;72.15
59443;BME280;45247;47.466;19.004;2023-04-25T11:42:51;98908.03;;;14.80;73.63
59443;BME280;45247;47.466;19.004;2023-04-25T11:45:22;98913.03;;;14.93;70.57
59443;BME280;45247;47.466;19.004;2023-04-25T11:47:51;98928.44;;;14.99;66.59
59443;BME280;45247;47.466;19.004;2023-04-25T11:50:21;98924.53;;;14.55;68.24
59443;BME280;45247;47.466;19.004;2023-04-25T11:52:49;98928.00;;;14.36;71.26
59443;BME280;45247;47.466;19.004;2023-04-25T11:55:18;98930.63;;;14.26;72.64
59443;BME280;45247;47.466;19.004;2023-04-25T11:57:48;98929.09;;;14.23;71.19
59443;BME280;45247;47.466;19.004;2023-04-25T12:00:18;98927.03;;;14.37;73.01
59443;BME280;45247;47.466;19.004;2023-04-25T12:02:51;98941.28;;;14.45;70.66
59443;BME280;45247;47.466;19.004;2023-04-25T12:05:26;98939.78;;;14.52;70.15
59443;BME280;45247;47.466;19.004;2023-04-25T12:08:10;98940.34;;;15.42;64.96
59443;BME280;45247;47.466;19.004;2023-04-25T12:10:40;98942.25;;;15.49;64.33
59443;BME280;45247;47.466;19.004;2023-04-25T12:13:23;98941.16;;;15.89;58.08
59443;BME280;45247;47.466;19.004;2023-04-25T12:15:54;98930.41;;;15.81;56.83
59443;BME280;45247;47.466;19.004;2023-04-25T12:18:23;98937.34;;;16.10;56.80
59443;BME280;45247;47.466;19.004;2023-04-25T12:20:55;98931.16;;;16.37;55.40
59443;BME280;45247;47.466;19.004;2023-04-25T12:23:27;98924.91;;;16.64;54.28
59443;BME280;45247;47.466;19.004;2023-04-25T12:25:55;98923.72;;;16.58;53.42
59443;BME280;45247;47.466;19.004;2023-04-25T12:28:25;98933.22;;;16.25;54.21
59443;BME280;45247;47.466;19.004;2023-04-25T12:30:55;98915.19;;;16.19;53.72
59443;BME280;45247;47.466;19.004;2023-04-25T12:33:25;98934.75;;;15.35;54.19
59443;BME280;45247;47.466;19.004;2023-04-25T12:35:55;98914.88;;;14.83;56.18
59443;BME280;45247;47.466;19.004;2023-04-25T12:38:25;98912.50;;;14.80;54.74
59443;BME280;45247;47.466;19.004;2023-04-25T12:40:53;98917.91;;;14.97;55.07
59443;BME280;45247;47.466;19.004;2023-04-25T12:43:22;98918.28;;;15.22;54.07
59443;BME280;45247;47.466;19.004;2023-04-25T12:45:51;98908.97;;;15.45;53.18
59443;BME280;45247;47.466;19.004;2023-04-25T12:48:20;98906.50;;;15.62;53.36
59443;BME280;45247;47.466;19.004;2023-04-25T12:50:51;98895.16;;;15.42;52.11
59443;BME280;45247;47.466;19.004;2023-04-25T12:53:22;98904.56;;;15.91;52.53
59443;BME280;45247;47.466;19.004;2023-04-25T12:55:50;98904.94;;;16.24;53.07
59443;BME280;45247;47.466;19.004;2023-04-25T12:58:23;98901.44;;;16.41;54.24